Time;durP1;ratioP1;P1;durP2;ratioP2;P2;SDS_P1;SDS_P2;PMS_P1;PMS_P2;Temp;Humidity;BMP_temperature;BMP_pressure;BME280_temperature;BME280_humidity;BME280_pressure;Samples;Min_cycle;Max_cycle;Signal;HPM_P1;HPM_P2
2022/09/13 00:00:35;;;;;;;21.63;9.77;;;;;;;17.59;66.28;99532.63;4997968;28;20425;-86
2022/09/13 00:03:02;;;;;;;19.67;9.43;;;;;;;17.53;66.35;99528.00;4982822;28;20047;-85
2022/09/13 00:05:29;;;;;;;20.15;9.48;;;;;;;17.64;65.84;99538.25;4972761;28;20051;-85
2022/09/13 00:07:56;;;;;;;17.95;10.38;;;;;;;17.63;65.48;99527.69;4965993;28;20515;-86
2022/09/13 00:10:23;;;;;;;25.95;10.65;;;;;;;17.60;65.56;99531.59;4937909;28;20460;-86
2022/09/13 00:12:50;;;;;;;20.58;10.60;;;;;;;17.61;65.75;99527.91;4992895;28;20104;-86
2022/09/13 00:15:17;;;;;;;17.80;9.27;;;;;;;17.58;65.59;99525.59;4940359;28;20125;-85
2022/09/13 00:17:44;;;;;;;21.70;11.25;;;;;;;17.61;65.32;99525.22;4954823;28;20057;-86
2022/09/13 00:20:11;;;;;;;16.40;10.35;;;;;;;17.54;65.83;99527.81;4981386;28;20042;-86
2022/09/13 00:22:38;;;;;;;18.90;9.65;;;;;;;17.54;65.65;99522.44;5000159;28;20054;-86
2022/09/13 00:25:06;;;;;;;20.33;10.10;;;;;;;17.56;65.61;99508.84;4954107;28;20093;-85
2022/09/13 00:27:34;;;;;;;16.00;10.02;;;;;;;17.49;65.94;99519.47;4965641;28;20517;-85
2022/09/13 00:30:02;;;;;;;23.15;10.35;;;;;;;17.43;65.91;99522.06;4949110;28;20625;-86
2022/09/13 00:32:29;;;;;;;22.15;10.10;;;;;;;17.41;66.02;99524.97;4964370;28;20046;-85
2022/09/13 00:34:56;;;;;;;25.30;10.20;;;;;;;17.42;65.92;99520.44;4955317;28;20113;-86
2022/09/13 00:37:23;;;;;;;20.92;9.88;;;;;;;17.35;65.99;99517.66;4966841;28;20054;-86
2022/09/13 00:39:50;;;;;;;17.42;9.27;;;;;;;17.31;66.11;99505.63;4950405;28;20104;-85
2022/09/13 00:42:17;;;;;;;20.00;10.65;;;;;;;17.29;65.89;99499.63;4956006;28;20089;-85
2022/09/13 00:45:09;;;;;;;17.02;10.15;;;;;;;17.08;66.52;99498.53;4983397;28;20058;-85
2022/09/13 00:47:42;;;;;;;20.92;10.02;;;;;;;17.10;66.49;99493.81;4919645;28;20050;-86
2022/09/13 00:50:30;;;;;;;17.98;9.73;;;;;;;16.93;66.75;99493.16;4983539;28;20105;-85
2022/09/13 00:53:14;;;;;;;15.18;9.43;;;;;;;16.90;67.09;99498.91;4957675;28;20065;-86
2022/09/13 00:56:08;;;;;;;16.63;10.18;;;;;;;16.86;67.13;99505.66;4900559;28;20050;-85
2022/09/13 00:59:00;;;;;;;19.17;9.82;;;;;;;17.04;66.73;99510.66;4945444;28;20093;-85
2022/09/13 01:01:32;;;;;;;18.95;9.43;;;;;;;16.96;66.88;99497.34;4929018;28;20112;-85
2022/09/13 01:04:00;;;;;;;18.52;9.57;;;;;;;17.01;67.03;99496.78;4965718;28;20050;-86
2022/09/13 01:06:29;;;;;;;22.13;10.38;;;;;;;17.04;66.67;99497.22;4961443;28;20061;-86
2022/09/13 01:09:02;;;;;;;15.65;9.30;;;;;;;17.06;67.03;99502.44;4982790;28;20062;-86
2022/09/13 01:11:32;;;;;;;;;;;;;;;16.57;68.23;99502.94;4948781;28;20418;-86
2022/09/13 01:13:58;;;;;;;21.13;9.85;;;;;;;16.95;67.08;99511.78;4999031;28;19937;-86
2022/09/13 01:16:25;;;;;;;15.57;8.50;;;;;;;16.92;66.84;99502.25;4983496;28;20096;-86
2022/09/13 01:18:52;;;;;;;20.40;10.90;;;;;;;16.95;66.81;99501.03;4950578;28;20050;-85
2022/09/13 01:21:38;;;;;;;17.58;10.45;;;;;;;16.66;67.83;99508.03;4959429;28;20062;-85
2022/09/13 01:24:33;;;;;;;18.35;10.00;;;;;;;16.79;67.37;99498.53;4961128;28;20043;-86
2022/09/13 01:27:27;;;;;;;18.10;10.05;;;;;;;16.61;67.96;99493.50;4944716;28;20397;-86
2022/09/13 01:30:01;;;;;;;16.98;9.35;;;;;;;16.76;67.33;99499.69;4904343;28;20134;-85
2022/09/13 01:32:53;;;;;;;22.38;11.05;;;;;;;16.81;67.27;99497.31;4946593;28;20661;-86
2022/09/13 01:35:48;;;;;;;17.02;9.93;;;;;;;16.68;67.57;99487.22;4904561;28;20101;-86
2022/09/13 01:38:40;;;;;;;21.38;10.10;;;;;;;16.78;67.42;99478.94;4925843;28;20073;-86
2022/09/13 01:41:32;;;;;;;15.75;9.85;;;;;;;16.57;67.97;99476.13;4915854;28;20098;-85
2022/09/13 01:44:17;;;;;;;16.85;9.95;;;;;;;16.51;68.13;99477.66;4959651;28;20066;-85
2022/09/13 01:46:56;;;;;;;18.23;8.95;;;;;;;16.70;67.71;99482.50;4941550;28;20039;-85
2022/09/13 01:49:50;;;;;;;17.05;9.07;;;;;;;16.64;67.76;99483.25;4961123;28;20605;-85
2022/09/13 01:52:24;;;;;;;20.02;9.55;;;;;;;16.64;67.47;99485.09;4870095;28;20134;-85
2022/09/13 01:55:17;;;;;;;19.15;10.38;;;;;;;16.57;67.96;99490.34;4962756;28;20043;-85
2022/09/13 01:58:16;;;;;;;17.90;10.55;;;;;;;16.64;67.73;99488.63;4932195;28;20070;-86
2022/09/13 02:00:50;;;;;;;18.40;10.48;;;;;;;16.76;67.14;99497.00;4912478;28;20050;-86
2022/09/13 02:03:20;;;;;;;22.92;9.75;;;;;;;16.80;67.38;99493.00;4947012;28;20054;-86
2022/09/13 02:05:55;;;;;;;18.08;9.88;;;;;;;16.70;66.93;99477.13;4925899;28;20113;-85
2022/09/13 02:08:51;;;;;;;19.08;9.57;;;;;;;16.67;66.97;99492.78;4978196;28;20043;-85
2022/09/13 02:11:21;;;;;;;17.33;9.27;;;;;;;16.69;67.54;99491.56;4913194;28;20061;-85
2022/09/13 02:13:58;;;;;;;18.85;9.88;;;;;;;16.51;67.60;99499.09;4965933;28;20480;-86
2022/09/13 02:16:34;;;;;;;16.42;9.77;;;;;;;16.57;67.51;99495.72;4982849;28;20524;-86
2022/09/13 02:19:09;;;;;;;18.40;9.68;;;;;;;16.70;67.20;99495.09;4982286;28;20046;-85
2022/09/13 02:21:39;;;;;;;18.35;9.73;;;;;;;16.64;67.52;99495.81;4951600;28;20130;-86
2022/09/13 02:24:07;;;;;;;19.83;10.27;;;;;;;16.78;66.89;99489.66;4981237;28;20042;-85
2022/09/13 02:26:37;;;;;;;21.10;10.77;;;;;;;16.73;66.95;99492.03;4951311;28;20054;-85
2022/09/13 02:29:07;;;;;;;17.77;9.80;;;;;;;16.71;67.29;99494.91;4981600;28;20100;-86
2022/09/13 02:31:38;;;;;;;19.20;8.98;;;;;;;16.69;67.13;99488.91;4947934;28;20041;-85
2022/09/13 02:34:11;;;;;;;18.05;9.95;;;;;;;16.53;67.35;99475.63;4950597;28;20058;-86
2022/09/13 02:36:41;;;;;;;20.67;9.30;;;;;;;16.59;67.58;99477.59;4963401;28;20406;-86
2022/09/13 02:39:21;;;;;;;18.63;9.02;;;;;;;16.38;67.53;99480.16;4946042;28;20077;-86
2022/09/13 02:42:03;;;;;;;23.58;9.63;;;;;;;16.27;67.97;99482.25;4964445;28;20138;-85
2022/09/13 02:44:33;;;;;;;20.85;10.65;;;;;;;16.40;67.56;99486.16;4949950;28;20049;-86
2022/09/13 02:47:23;;;;;;;19.15;9.63;;;;;;;16.23;68.08;99489.00;4968289;28;20051;-85
2022/09/13 02:49:59;;;;;;;15.93;8.70;;;;;;;16.26;68.22;99493.16;4933111;28;20046;-85
2022/09/13 02:52:31;;;;;;;15.52;9.93;;;;;;;16.34;67.84;99498.44;4974403;28;20049;-85
2022/09/13 02:55:01;;;;;;;20.27;9.65;;;;;;;16.38;67.63;99485.50;4950536;28;20102;-85
2022/09/13 02:57:30;;;;;;;16.63;8.80;;;;;;;16.35;67.90;99483.19;4946911;28;20112;-85
2022/09/13 02:59:57;;;;;;;18.02;8.95;;;;;;;16.43;67.48;99496.50;4978752;28;20057;-85
2022/09/13 03:02:27;;;;;;;17.98;9.93;;;;;;;16.36;67.73;99492.88;4953860;28;20050;-86
2022/09/13 03:04:54;;;;;;;16.30;9.40;;;;;;;16.40;68.04;99502.25;4954498;28;20461;-86
2022/09/13 03:07:21;;;;;;;20.65;9.38;;;;;;;16.39;67.94;99506.78;4950596;28;20429;-86
2022/09/13 03:10:00;;;;;;;20.10;10.18;;;;;;;16.20;67.91;99505.41;4952272;28;20096;-85
2022/09/13 03:12:28;;;;;;;19.55;9.25;;;;;;;16.35;68.04;99499.28;4945240;28;20098;-85
2022/09/13 03:15:16;;;;;;;18.60;10.50;;;;;;;16.21;68.19;99493.69;4963945;28;20042;-85
2022/09/13 03:17:50;;;;;;;17.27;9.77;;;;;;;16.40;67.72;99496.88;4933203;28;20046;-85
2022/09/13 03:20:24;;;;;;;19.77;9.25;;;;;;;16.42;67.54;99500.22;4919420;28;20105;-86
2022/09/13 03:23:28;;;;;;;16.77;9.07;;;;;;;16.15;67.44;99505.13;4941696;28;20046;-85
2022/09/13 03:26:13;;;;;;;22.08;9.40;;;;;;;16.30;67.85;99501.66;4890829;28;20070;-85
2022/09/13 03:29:10;;;;;;;15.20;9.20;;;;;;;15.96;68.82;99494.91;4938339;28;20564;-85
2022/09/13 03:31:55;;;;;;;15.38;8.88;;;;;;;16.00;68.00;99489.03;4949683;28;20054;-86
2022/09/13 03:34:47;;;;;;;17.27;8.70;;;;;;;16.01;67.99;99501.38;4906922;28;20046;-86
2022/09/13 03:37:27;;;;;;;14.23;9.05;;;;;;;16.10;68.31;99491.44;4978114;28;20031;-86
2022/09/13 03:40:04;;;;;;;16.65;9.80;;;;;;;16.06;68.03;99492.81;4966440;28;20108;-85
2022/09/13 03:42:53;;;;;;;15.48;9.02;;;;;;;15.81;68.68;99497.53;4980325;28;20070;-86
2022/09/13 03:45:29;;;;;;;14.20;8.23;;;;;;;16.11;68.14;99479.72;4907633;28;20098;-85
2022/09/13 03:47:56;;;;;;;18.70;9.23;;;;;;;16.11;68.21;99471.69;4983370;28;20062;-85
2022/09/13 03:50:25;;;;;;;18.65;8.68;;;;;;;16.11;68.27;99469.00;4965027;28;20072;-86
2022/09/13 03:52:58;;;;;;;16.10;9.50;;;;;;;16.02;68.25;99467.41;4963987;28;20096;-85
2022/09/13 03:55:24;;;;;;;;;;;;;;;15.57;69.76;99469.88;4960191;28;20105;-85
2022/09/13 03:57:51;;;;;;;20.80;9.13;;;;;;;16.03;68.58;99471.75;4955456;28;19957;-86
2022/09/13 04:00:18;;;;;;;16.15;8.93;;;;;;;16.06;68.33;99472.22;4939999;28;20045;-86
2022/09/13 04:02:45;;;;;;;20.75;9.70;;;;;;;15.99;68.54;99473.13;4952456;28;20050;-86
2022/09/13 04:05:11;;;;;;;18.67;10.63;;;;;;;16.08;68.06;99466.69;4954883;28;20131;-86
2022/09/13 04:07:38;;;;;;;18.27;10.88;;;;;;;16.15;68.01;99456.91;4959350;28;20054;-85
2022/09/13 04:10:06;;;;;;;15.52;8.85;;;;;;;16.16;68.02;99449.72;4956864;28;20395;-85
2022/09/13 04:12:40;;;;;;;18.95;9.20;;;;;;;16.10;68.27;99450.44;4959742;28;20088;-85
2022/09/13 04:15:07;;;;;;;13.52;8.13;;;;;;;16.06;68.24;99442.75;4954184;28;20112;-85
2022/09/13 04:17:35;;;;;;;15.82;8.77;;;;;;;16.07;67.87;99438.22;4967018;28;20078;-85
2022/09/13 04:20:02;;;;;;;17.27;9.10;;;;;;;16.10;68.12;99442.41;4966993;28;20441;-85
2022/09/13 04:22:30;;;;;;;16.27;8.38;;;;;;;16.12;67.88;99457.28;4954954;28;20046;-86
2022/09/13 04:24:57;;;;;;;15.93;8.10;;;;;;;16.03;68.13;99459.19;4957235;28;20180;-86
2022/09/13 04:27:28;;;;;;;18.13;8.55;;;;;;;16.02;68.22;99457.50;4966355;28;20074;-86
2022/09/13 04:29:54;;;;;;;14.77;9.43;;;;;;;16.04;68.26;99460.03;4969265;28;20525;-87
2022/09/13 04:32:21;;;;;;;19.58;9.05;;;;;;;16.03;68.12;99471.75;4980460;28;20034;-86
2022/09/13 04:34:48;;;;;;;18.27;9.68;;;;;;;16.07;67.96;99481.09;4958437;28;20425;-86
2022/09/13 04:37:15;;;;;;;16.88;8.93;;;;;;;16.10;68.19;99487.94;4996294;28;20053;-87
2022/09/13 04:39:42;;;;;;;18.00;9.32;;;;;;;16.06;68.09;99500.84;4952486;28;20046;-86
2022/09/13 04:42:10;;;;;;;21.70;10.48;;;;;;;16.10;67.70;99504.81;4972096;28;20141;-85
2022/09/13 04:44:37;;;;;;;20.60;9.43;;;;;;;16.06;67.71;99507.03;4962415;28;20050;-85
2022/09/13 04:47:05;;;;;;;17.42;9.90;;;;;;;16.03;68.08;99509.25;4934818;28;20049;-86
2022/09/13 04:49:32;;;;;;;17.00;9.40;;;;;;;15.99;68.42;99506.09;4968661;28;20536;-86
2022/09/13 04:51:59;;;;;;;18.55;9.25;;;;;;;16.01;68.23;99492.53;4957869;28;20046;-85
2022/09/13 04:54:26;;;;;;;15.98;8.52;;;;;;;15.99;68.50;99489.19;4954072;28;20409;-85
2022/09/13 04:56:53;;;;;;;16.92;9.57;;;;;;;16.00;68.31;99485.50;4952932;28;20066;-86
2022/09/13 04:59:20;;;;;;;13.98;8.50;;;;;;;16.00;68.27;99490.84;4983519;28;20461;-86
2022/09/13 05:01:46;;;;;;;15.52;8.98;;;;;;;16.00;68.32;99493.53;4971242;28;20066;-85
2022/09/13 05:04:13;;;;;;;17.75;9.23;;;;;;;15.94;68.72;99486.22;4952373;28;20038;-86
2022/09/13 05:06:40;;;;;;;16.23;8.93;;;;;;;15.96;68.33;99487.69;4969224;28;20046;-86
2022/09/13 05:09:12;;;;;;;19.70;9.35;;;;;;;15.91;68.36;99497.28;4945843;28;20642;-86
2022/09/13 05:11:39;;;;;;;15.43;9.45;;;;;;;15.87;68.70;99515.53;4977796;28;20113;-86
2022/09/13 05:14:09;;;;;;;18.10;9.45;;;;;;;15.82;68.85;99509.88;4966680;28;20461;-86
2022/09/13 05:16:35;;;;;;;14.90;9.57;;;;;;;15.88;68.82;99503.00;4980711;28;20049;-86
2022/09/13 05:19:02;;;;;;;15.20;8.77;;;;;;;15.90;68.77;99503.63;4955206;28;20046;-85
2022/09/13 05:21:29;;;;;;;16.40;8.82;;;;;;;15.87;68.96;99507.50;4944735;28;20050;-86
2022/09/13 05:23:57;;;;;;;19.83;9.73;;;;;;;15.92;68.79;99501.63;4966744;28;20468;-86
2022/09/13 05:26:25;;;;;;;16.25;9.02;;;;;;;15.89;69.00;99500.13;4969078;28;20054;-85
2022/09/13 05:28:52;;;;;;;17.73;9.90;;;;;;;15.94;68.79;99507.63;4986099;28;20575;-85
2022/09/13 05:31:25;;;;;;;16.60;9.40;;;;;;;15.93;69.04;99495.28;4948109;28;20548;-86
2022/09/13 05:33:57;;;;;;;18.33;9.57;;;;;;;15.90;69.39;99507.19;4949413;28;20046;-86
2022/09/13 05:36:25;;;;;;;21.38;9.60;;;;;;;16.02;68.78;99519.13;4932187;28;20406;-86
2022/09/13 05:38:56;;;;;;;20.15;9.55;;;;;;;15.92;68.86;99520.38;4940305;28;20120;-86
2022/09/13 05:41:43;;;;;;;15.27;8.95;;;;;;;16.04;68.60;99526.97;4920201;28;20100;-85
2022/09/13 05:44:10;;;;;;;20.17;8.85;;;;;;;16.10;68.39;99531.63;4948918;28;20116;-86
2022/09/13 05:46:41;;;;;;;18.23;9.60;;;;;;;16.10;68.28;99526.25;4954434;28;20044;-85
2022/09/13 05:49:07;;;;;;;14.48;8.32;;;;;;;16.05;68.52;99525.97;4954646;28;20513;-85
2022/09/13 05:51:35;;;;;;;19.73;9.32;;;;;;;16.08;68.45;99527.44;4949706;28;20070;-86
2022/09/13 05:54:01;;;;;;;23.83;9.35;;;;;;;16.14;68.24;99524.06;4975977;28;20307;-85
2022/09/13 05:56:29;;;;;;;20.08;9.23;;;;;;;16.14;68.48;99538.28;4965702;28;20501;-86
2022/09/13 05:58:55;;;;;;;16.83;9.52;;;;;;;16.11;68.26;99533.28;4980420;28;20042;-86
2022/09/13 06:01:25;;;;;;;20.30;9.10;;;;;;;16.07;68.18;99534.66;4964985;28;20569;-86
2022/09/13 06:03:54;;;;;;;19.40;10.70;;;;;;;16.11;68.49;99527.94;4966252;28;20221;-85
2022/09/13 06:06:21;;;;;;;16.58;9.57;;;;;;;16.15;68.56;99517.69;4987973;28;20058;-85
2022/09/13 06:08:54;;;;;;;19.77;9.35;;;;;;;16.09;68.29;99519.25;4962528;28;20038;-85
2022/09/13 06:11:22;;;;;;;20.77;9.00;;;;;;;16.13;68.61;99530.41;4941047;28;20046;-85
2022/09/13 06:13:49;;;;;;;18.42;9.65;;;;;;;16.15;68.53;99539.13;4951161;28;20446;-85
2022/09/13 06:16:16;;;;;;;19.88;9.57;;;;;;;16.20;68.41;99524.16;4930150;28;20049;-85
2022/09/13 06:18:43;;;;;;;19.65;9.60;;;;;;;16.25;68.28;99529.81;4915952;28;20105;-85
2022/09/13 06:21:16;;;;;;;21.38;10.18;;;;;;;16.18;68.45;99534.25;4935785;28;20045;-85
2022/09/13 06:23:47;;;;;;;21.38;9.77;;;;;;;16.18;68.62;99536.94;4932503;28;20038;-85
2022/09/13 06:26:15;;;;;;;25.05;10.45;;;;;;;16.23;68.72;99522.97;4939396;28;20050;-85
2022/09/13 06:28:42;;;;;;;17.98;9.73;;;;;;;16.29;68.70;99522.28;4934223;28;20058;-84
2022/09/13 06:31:11;;;;;;;26.92;11.00;;;;;;;16.30;68.58;99531.97;4946492;28;20097;-86
2022/09/13 06:33:40;;;;;;;21.85;10.00;;;;;;;16.26;68.73;99525.31;4948329;28;20560;-85
2022/09/13 06:36:09;;;;;;;21.08;9.90;;;;;;;16.32;68.44;99521.91;4948579;28;20066;-86
2022/09/13 06:38:38;;;;;;;20.60;9.55;;;;;;;16.32;68.45;99518.41;4964272;28;20050;-84
2022/09/13 06:41:07;;;;;;;18.73;10.60;;;;;;;16.37;68.27;99514.16;4950364;28;20246;-85
2022/09/13 06:43:33;;;;;;;21.10;10.02;;;;;;;16.36;68.34;99511.66;4963090;28;20097;-85
2022/09/13 06:46:02;;;;;;;20.30;9.40;;;;;;;16.40;68.33;99503.06;4938821;28;20398;-85
2022/09/13 06:48:30;;;;;;;23.75;10.27;;;;;;;16.51;67.93;99499.09;4960023;28;20105;-86
2022/09/13 06:50:58;;;;;;;17.70;10.00;;;;;;;16.59;68.04;99500.88;4965371;28;20076;-85
2022/09/13 06:53:27;;;;;;;21.77;9.77;;;;;;;16.61;68.03;99499.72;4941286;28;20108;-86
2022/09/13 06:56:02;;;;;;;24.75;11.65;;;;;;;16.56;68.61;99498.56;4970787;28;20502;-85
2022/09/13 06:58:30;;;;;;;24.77;10.73;;;;;;;16.70;68.00;99514.69;4938898;28;20525;-85
2022/09/13 07:01:09;;;;;;;20.60;10.38;;;;;;;16.58;68.33;99512.63;4943854;28;20109;-84
2022/09/13 07:03:41;;;;;;;21.95;10.18;;;;;;;16.66;67.92;99513.41;4901791;28;20621;-85
2022/09/13 07:06:13;;;;;;;18.80;9.45;;;;;;;16.57;68.53;99519.84;4927301;28;20043;-85
2022/09/13 07:08:41;;;;;;;22.33;9.88;;;;;;;16.71;67.98;99516.38;4945858;28;20047;-84
2022/09/13 07:11:09;;;;;;;19.73;10.18;;;;;;;16.75;68.19;99508.78;4921828;28;20473;-85
2022/09/13 07:13:36;;;;;;;18.58;10.63;;;;;;;16.75;68.31;99513.31;4927300;28;20057;-84
2022/09/13 07:16:05;;;;;;;21.23;10.63;;;;;;;16.79;68.34;99511.94;4923674;28;20524;-85
2022/09/13 07:18:32;;;;;;;27.35;11.27;;;;;;;16.80;68.20;99502.91;4938245;28;20047;-85
2022/09/13 07:21:00;;;;;;;23.10;11.13;;;;;;;16.84;68.26;99512.22;4910688;28;23088;-85
2022/09/13 07:23:27;;;;;;;21.98;10.38;;;;;;;16.83;68.14;99516.75;4899588;28;20047;-85
2022/09/13 07:26:00;;;;;;;21.48;11.05;;;;;;;16.83;68.03;99518.59;4877786;28;20043;-84
2022/09/13 07:28:28;;;;;;;19.00;10.63;;;;;;;16.89;67.72;99523.22;4935395;28;20180;-85
2022/09/13 07:31:09;;;;;;;18.58;9.65;;;;;;;16.79;68.41;99511.94;4882866;28;20053;-86
2022/09/13 07:33:37;;;;;;;16.75;9.60;;;;;;;16.90;68.16;99504.28;4948920;28;20055;-84
2022/09/13 07:36:05;;;;;;;23.80;11.20;;;;;;;16.91;67.97;99503.25;4944763;28;20062;-84
2022/09/13 07:38:36;;;;;;;19.50;9.75;;;;;;;16.88;67.73;99511.66;4974994;28;20042;-84
2022/09/13 07:41:05;;;;;;;21.38;10.05;;;;;;;16.89;68.10;99518.72;4949832;28;20579;-85
2022/09/13 07:43:33;;;;;;;20.52;9.43;;;;;;;16.90;68.00;99517.69;4954535;28;20138;-85
2022/09/13 07:46:08;;;;;;;21.27;11.40;;;;;;;16.83;68.41;99510.56;4978256;28;20082;-85
2022/09/13 07:48:36;;;;;;;24.60;11.30;;;;;;;16.98;68.06;99506.03;4982304;28;20059;-85
2022/09/13 07:51:06;;;;;;;23.08;10.88;;;;;;;17.04;67.86;99518.69;4968113;28;20058;-85
2022/09/13 07:53:34;;;;;;;26.15;11.20;;;;;;;17.11;67.65;99508.06;4964663;28;21555;-85
2022/09/13 07:56:14;;;;;;;21.02;10.27;;;;;;;17.12;67.51;99515.09;4983336;28;20038;-85
2022/09/13 07:58:42;;;;;;;26.17;10.48;;;;;;;17.14;67.46;99523.78;4919460;28;20055;-85
2022/09/13 08:01:13;;;;;;;20.95;9.85;;;;;;;17.18;66.93;99518.91;4966673;28;20045;-85
2022/09/13 08:03:40;;;;;;;26.02;10.45;;;;;;;17.20;66.97;99516.84;4937078;28;20050;-85
2022/09/13 08:06:07;;;;;;;20.13;10.77;;;;;;;17.29;66.80;99524.59;4978583;28;20506;-85
2022/09/13 08:08:35;;;;;;;21.75;9.98;;;;;;;17.36;66.79;99514.78;4966413;28;20108;-85
2022/09/13 08:11:04;;;;;;;21.83;11.40;;;;;;;17.45;67.01;99512.00;4969411;28;20046;-85
2022/09/13 08:13:33;;;;;;;24.92;10.40;;;;;;;17.49;66.90;99513.28;4954837;28;20054;-85
2022/09/13 08:16:02;;;;;;;18.20;10.52;;;;;;;17.54;66.47;99511.69;4964637;28;20105;-85
2022/09/13 08:18:29;;;;;;;22.98;10.32;;;;;;;17.54;66.31;99521.63;4974510;28;20050;-85
2022/09/13 08:20:57;;;;;;;19.52;10.13;;;;;;;17.51;66.38;99530.88;4956136;28;20046;-85
2022/09/13 08:23:24;;;;;;;19.52;9.68;;;;;;;17.57;66.28;99529.28;4968495;28;20047;-85
2022/09/13 08:25:51;;;;;;;20.77;10.32;;;;;;;17.61;66.23;99529.75;4969496;28;20497;-85
2022/09/13 08:28:22;;;;;;;20.02;10.63;;;;;;;17.61;66.37;99519.03;4968646;28;20557;-85
2022/09/13 08:30:53;;;;;;;18.63;9.07;;;;;;;17.59;66.32;99519.19;4937106;28;20046;-84
2022/09/13 08:33:20;;;;;;;18.20;9.32;;;;;;;17.64;66.05;99506.03;4985108;28;20121;-84
2022/09/13 08:35:51;;;;;;;22.33;10.93;;;;;;;17.63;65.86;99501.69;4934805;28;20046;-84
2022/09/13 08:38:18;;;;;;;24.73;10.45;;;;;;;17.70;65.85;99499.06;4971760;28;20510;-84
2022/09/13 08:40:51;;;;;;;22.75;10.18;;;;;;;17.68;65.98;99490.38;4967491;28;20046;-84
